Time;durP1;ratioP1;P1;durP2;ratioP2;P2;SDS_P1;SDS_P2;PMS_P1;PMS_P2;Temp;Humidity;BMP_temperature;BMP_pressure;BME280_temperature;BME280_humidity;BME280_pressure;Samples;Min_cycle;Max_cycle;Signal;HPM_P1;HPM_P2
2023/04/11 00:02:14;;;;;;;0.65;0.32;;;;;;;11.42;100.00;100886.63;4984775;28;20495;-77
2023/04/11 00:04:43;;;;;;;0.45;0.30;;;;;;;11.43;100.00;100901.38;4987678;28;20074;-77
2023/04/11 00:07:14;;;;;;;0.75;0.22;;;;;;;11.29;100.00;100887.13;4987711;28;20062;-75
2023/04/11 00:09:43;;;;;;;0.20;0.20;;;;;;;11.35;100.00;100892.47;4991755;28;20047;-75
2023/04/11 00:12:11;;;;;;;0.30;0.20;;;;;;;11.33;100.00;100883.78;4987514;28;20092;-76
2023/04/11 00:14:44;;;;;;;1.38;0.50;;;;;;;11.33;100.00;100887.25;4986799;28;20667;-77
2023/04/11 00:17:13;;;;;;;0.32;0.32;;;;;;;11.28;100.00;100888.84;4981010;28;20050;-78
2023/04/11 00:19:42;;;;;;;0.68;0.38;;;;;;;11.29;100.00;100882.84;4986642;28;20064;-77
2023/04/11 00:22:12;;;;;;;0.73;0.40;;;;;;;11.24;100.00;100874.03;4985158;28;20069;-77
2023/04/11 00:24:41;;;;;;;0.52;0.28;;;;;;;11.25;100.00;100895.66;4989522;28;20108;-77
2023/04/11 00:27:09;;;;;;;1.50;0.30;;;;;;;11.23;100.00;100897.31;4981914;28;20134;-77
2023/04/11 00:29:38;;;;;;;0.50;0.50;;;;;;;11.22;100.00;100891.25;4989028;28;20046;-77
2023/04/11 00:32:07;;;;;;;1.65;0.60;;;;;;;11.21;100.00;100886.91;4983131;28;20054;-77
2023/04/11 00:34:35;;;;;;;1.48;0.57;;;;;;;11.19;100.00;100885.13;4981021;28;20104;-76
2023/04/11 00:37:04;;;;;;;0.60;0.30;;;;;;;11.19;100.00;100887.69;4986714;28;20519;-75
2023/04/11 00:39:37;;;;;;;2.30;0.80;;;;;;;11.16;100.00;100885.91;4984896;28;20050;-76
2023/04/11 00:42:06;;;;;;;;;;;;;;;11.15;100.00;100889.31;4985441;28;20042;-77
2023/04/11 00:44:35;;;;;;;0.85;0.50;;;;;;;11.13;100.00;100890.09;4978840;28;19922;-76
2023/04/11 00:47:07;;;;;;;0.98;0.60;;;;;;;11.13;100.00;100895.28;4987511;28;20531;-77
2023/04/11 00:49:36;;;;;;;1.40;0.93;;;;;;;11.11;100.00;100900.44;4983251;28;20509;-75
2023/04/11 00:52:06;;;;;;;1.70;0.60;;;;;;;11.10;100.00;100901.25;4984432;28;20466;-76
2023/04/11 00:54:36;;;;;;;0.95;0.45;;;;;;;11.09;100.00;100900.38;4987987;28;20086;-76
2023/04/11 00:57:06;;;;;;;1.13;0.52;;;;;;;11.10;100.00;100901.25;4983181;28;20054;-76
2023/04/11 00:59:35;;;;;;;0.13;0.13;;;;;;;11.07;100.00;100899.47;4989250;28;20681;-76
2023/04/11 01:02:04;;;;;;;3.70;0.47;;;;;;;10.98;100.00;100885.38;4983931;28;20495;-76
2023/04/11 01:04:33;;;;;;;0.20;0.20;;;;;;;11.03;100.00;100899.31;4988653;28;20053;-76
2023/04/11 01:07:05;;;;;;;0.30;0.30;;;;;;;11.00;100.00;100905.28;4985921;28;20050;-76
2023/04/11 01:09:37;;;;;;;1.42;0.68;;;;;;;10.95;100.00;100917.22;4975261;28;20555;-75
2023/04/11 01:12:07;;;;;;;0.87;0.30;;;;;;;10.90;100.00;100913.59;4982174;28;20104;-76
2023/04/11 01:14:35;;;;;;;0.95;0.50;;;;;;;10.86;100.00;100906.59;4980516;28;20354;-76
2023/04/11 01:17:04;;;;;;;0.38;0.30;;;;;;;10.82;100.00;100912.50;4983708;28;20054;-75
2023/04/11 01:19:32;;;;;;;0.30;0.30;;;;;;;10.77;100.00;100914.06;4982058;28;20058;-74
2023/04/11 01:22:03;;;;;;;1.63;0.32;;;;;;;10.71;100.00;100912.16;4981074;28;20058;-74
2023/04/11 01:24:33;;;;;;;1.05;0.60;;;;;;;10.69;100.00;100916.41;4984725;28;20081;-74
2023/04/11 01:27:02;;;;;;;0.73;0.47;;;;;;;10.65;100.00;100918.03;4979831;28;20490;-74
2023/04/11 01:29:31;;;;;;;0.30;0.22;;;;;;;10.57;100.00;100923.78;4975118;28;20098;-74
2023/04/11 01:32:00;;;;;;;1.10;0.30;;;;;;;10.48;100.00;100914.00;4982884;28;20420;-74
2023/04/11 01:34:29;;;;;;;0.47;0.20;;;;;;;10.39;100.00;100929.22;4975641;28;20046;-75
2023/04/11 01:36:57;;;;;;;0.13;0.10;;;;;;;10.29;100.00;100928.06;4979835;28;20054;-75
2023/04/11 01:39:26;;;;;;;0.22;0.20;;;;;;;10.21;100.00;100925.16;4988700;28;20050;-75
2023/04/11 01:41:57;;;;;;;0.20;0.20;;;;;;;10.17;100.00;100944.00;4987795;28;20055;-75
2023/04/11 01:44:27;;;;;;;0.10;0.10;;;;;;;10.11;100.00;100937.75;4983921;28;20050;-75
2023/04/11 01:46:56;;;;;;;0.28;0.20;;;;;;;10.02;100.00;100946.06;4969420;28;20051;-74
2023/04/11 01:49:26;;;;;;;0.20;0.10;;;;;;;9.99;100.00;100954.59;4973800;28;20051;-75
2023/04/11 01:51:54;;;;;;;0.30;0.17;;;;;;;9.86;100.00;100948.09;4972070;28;20078;-76
2023/04/11 01:54:23;;;;;;;0.13;0.13;;;;;;;9.91;100.00;100957.72;4971952;28;20132;-76
2023/04/11 01:56:53;;;;;;;0.38;0.20;;;;;;;9.89;100.00;100956.78;4980585;28;20069;-75
2023/04/11 01:59:24;;;;;;;0.55;0.20;;;;;;;9.81;100.00;100943.59;4985474;28;20054;-73
2023/04/11 02:01:52;;;;;;;0.80;0.30;;;;;;;9.77;100.00;100946.91;4978678;28;20053;-75
2023/04/11 02:04:21;;;;;;;0.10;0.10;;;;;;;9.71;100.00;100952.75;4982468;28;20050;-75
2023/04/11 02:06:49;;;;;;;0.68;0.35;;;;;;;9.65;100.00;100948.22;4985595;28;20057;-74
2023/04/11 02:09:18;;;;;;;0.30;0.17;;;;;;;9.59;100.00;100947.09;4983968;28;20051;-74
2023/04/11 02:11:47;;;;;;;1.42;0.32;;;;;;;9.55;100.00;100943.56;4983971;28;20058;-76
2023/04/11 02:14:17;;;;;;;0.88;0.45;;;;;;;9.48;100.00;100940.66;4988775;28;20308;-75
2023/04/11 02:16:54;;;;;;;0.80;0.17;;;;;;;9.38;100.00;100936.88;4985736;28;20050;-75
2023/04/11 02:19:24;;;;;;;0.22;0.08;;;;;;;9.33;100.00;100943.56;4976338;28;20157;-74
2023/04/11 02:21:53;;;;;;;1.50;0.20;;;;;;;9.23;100.00;100952.66;4976873;28;20059;-74
2023/04/11 02:24:21;;;;;;;0.55;0.20;;;;;;;9.14;100.00;100954.88;4988679;28;20113;-75
2023/04/11 02:26:50;;;;;;;0.17;0.10;;;;;;;9.06;100.00;100933.06;4979973;28;20087;-74
2023/04/11 02:29:19;;;;;;;1.40;0.20;;;;;;;9.03;100.00;100933.84;4986108;28;20770;-74
2023/04/11 02:31:50;;;;;;;0.43;0.20;;;;;;;8.95;100.00;100936.09;4990549;28;20050;-74
2023/04/11 02:34:20;;;;;;;0.28;0.10;;;;;;;8.93;100.00;100926.53;4982339;28;20057;-75
2023/04/11 02:36:49;;;;;;;0.80;0.40;;;;;;;8.91;100.00;100923.94;4988139;28;20052;-74
2023/04/11 02:39:18;;;;;;;0.70;0.30;;;;;;;8.85;100.00;100909.91;4988110;28;20469;-75
2023/04/11 02:41:47;;;;;;;0.20;0.20;;;;;;;8.82;100.00;100921.00;4986609;28;20050;-75
2023/04/11 02:44:15;;;;;;;0.52;0.30;;;;;;;8.84;100.00;100947.72;4987471;28;20055;-76
2023/04/11 02:46:44;;;;;;;0.75;0.20;;;;;;;8.84;100.00;100952.88;4991554;28;20077;-74
2023/04/11 02:49:13;;;;;;;0.25;0.10;;;;;;;8.84;100.00;100958.03;4987594;28;20118;-74
2023/04/11 02:51:43;;;;;;;0.35;0.20;;;;;;;8.81;100.00;100968.25;4982200;28;20104;-74
2023/04/11 02:54:12;;;;;;;0.47;0.30;;;;;;;8.85;100.00;100964.97;4979539;28;20520;-74
2023/04/11 02:56:42;;;;;;;1.65;0.38;;;;;;;8.83;100.00;100966.59;4980025;28;20050;-74
2023/04/11 02:59:10;;;;;;;0.90;0.30;;;;;;;8.83;100.00;100971.75;4991659;28;20496;-74
2023/04/11 03:01:39;;;;;;;0.47;0.20;;;;;;;8.84;100.00;100973.50;4979522;28;20124;-73
2023/04/11 03:04:07;;;;;;;2.40;0.25;;;;;;;8.81;100.00;100974.28;4988777;28;20061;-73
2023/04/11 03:06:36;;;;;;;0.20;0.17;;;;;;;8.77;100.00;100972.41;4980483;28;20122;-73
2023/04/11 03:09:06;;;;;;;0.40;0.35;;;;;;;8.80;100.00;100980.25;4988168;28;20046;-72
2023/04/11 03:11:35;;;;;;;1.65;0.70;;;;;;;8.81;100.00;100978.56;4987933;28;20109;-73
2023/04/11 03:14:04;;;;;;;1.35;0.45;;;;;;;8.81;100.00;100983.72;4987969;28;20088;-74
2023/04/11 03:16:32;;;;;;;0.93;0.40;;;;;;;8.74;100.00;100971.41;4985484;28;20054;-73
2023/04/11 03:19:02;;;;;;;0.90;0.43;;;;;;;8.81;100.00;100991.47;4987092;28;20161;-75
2023/04/11 03:21:31;;;;;;;0.95;0.40;;;;;;;8.80;100.00;100989.72;4983995;28;20487;-72
2023/04/11 03:23:59;;;;;;;1.05;0.60;;;;;;;8.76;100.00;100988.69;4982230;28;20134;-72
2023/04/11 03:26:31;;;;;;;1.08;0.40;;;;;;;8.72;100.00;100993.66;4987445;28;20054;-72
2023/04/11 03:28:59;;;;;;;1.42;0.60;;;;;;;8.71;100.00;100994.50;4987868;28;20043;-70
2023/04/11 03:31:29;;;;;;;2.63;0.88;;;;;;;8.70;100.00;101000.47;4985678;28;20047;-71
2023/04/11 03:33:58;;;;;;;3.88;0.93;;;;;;;8.70;100.00;101008.19;4987379;28;20125;-71
2023/04/11 03:36:27;;;;;;;0.95;0.40;;;;;;;8.66;100.00;101004.63;4990942;28;20132;-71
2023/04/11 03:38:55;;;;;;;0.63;0.40;;;;;;;8.68;100.00;101012.41;4989726;28;20078;-71
2023/04/11 03:41:24;;;;;;;0.68;0.30;;;;;;;8.67;100.00;101005.50;4986447;28;20047;-72
2023/04/11 03:43:54;;;;;;;0.60;0.30;;;;;;;8.67;100.00;101000.34;4983619;28;20065;-72
2023/04/11 03:46:23;;;;;;;0.68;0.28;;;;;;;8.64;100.00;101001.09;4986049;28;20047;-71
2023/04/11 03:48:51;;;;;;;0.90;0.35;;;;;;;8.60;100.00;101000.09;4989440;28;20058;-71
2023/04/11 03:51:20;;;;;;;1.65;0.40;;;;;;;8.59;100.00;101010.34;4985114;28;20093;-72
2023/04/11 03:53:51;;;;;;;0.30;0.30;;;;;;;8.56;100.00;101020.53;4986102;28;20090;-72
2023/04/11 03:56:19;;;;;;;2.72;0.40;;;;;;;8.49;100.00;101019.38;4982963;28;20061;-72
2023/04/11 03:58:48;;;;;;;0.50;0.50;;;;;;;8.45;100.00;101017.50;4989564;28;20048;-72
2023/04/11 04:01:18;;;;;;;1.27;0.60;;;;;;;8.44;100.00;101023.47;4981959;28;20050;-72
2023/04/11 04:03:47;;;;;;;2.10;0.95;;;;;;;8.41;100.00;101030.19;4986325;28;20054;-72
2023/04/11 04:06:15;;;;;;;0.85;0.40;;;;;;;8.35;100.00;101028.22;4979562;28;20402;-72
2023/04/11 04:08:44;;;;;;;1.73;0.80;;;;;;;8.36;100.00;101032.53;4989205;28;20059;-72
2023/04/11 04:11:12;;;;;;;0.30;0.25;;;;;;;8.33;100.00;101030.72;4987856;28;20050;-71
2023/04/11 04:13:41;;;;;;;0.57;0.40;;;;;;;8.32;100.00;101033.25;4983275;28;20088;-72
2023/04/11 04:16:10;;;;;;;0.55;0.20;;;;;;;8.23;100.00;101032.84;4989178;28;20050;-72
2023/04/11 04:18:40;;;;;;;2.05;0.28;;;;;;;8.31;100.00;101052.09;4988963;28;20350;-73
2023/04/11 04:21:09;;;;;;;0.13;0.13;;;;;;;8.29;100.00;101044.31;4988690;28;20128;-72
2023/04/11 04:23:38;;;;;;;0.10;0.10;;;;;;;8.27;100.00;101047.59;4980273;28;20062;-72
2023/04/11 04:26:07;;;;;;;3.63;0.20;;;;;;;8.20;100.00;101038.75;4985706;28;20081;-73
2023/04/11 04:28:35;;;;;;;0.10;0.10;;;;;;;8.06;100.00;101016.63;4990419;28;20133;-74
2023/04/11 04:31:04;;;;;;;0.10;0.10;;;;;;;8.02;100.00;101022.44;4984981;28;20060;-71
2023/04/11 04:33:33;;;;;;;0.20;0.15;;;;;;;7.91;100.00;101022.00;4993576;28;20066;-73
2023/04/11 04:36:03;;;;;;;0.60;0.25;;;;;;;7.84;100.00;101025.13;4981156;28;20058;-73
2023/04/11 04:38:36;;;;;;;0.32;0.15;;;;;;;7.78;100.00;101023.13;4986994;28;20051;-72
2023/04/11 04:41:13;;;;;;;0.73;0.38;;;;;;;7.74;100.00;101024.72;4988030;28;20181;-73
2023/04/11 04:43:42;;;;;;;0.43;0.30;;;;;;;7.75;100.00;101029.03;4986706;28;20058;-73
2023/04/11 04:46:11;;;;;;;0.65;0.10;;;;;;;7.74;100.00;101040.16;4985667;28;20795;-73
2023/04/11 04:48:40;;;;;;;2.78;0.20;;;;;;;7.73;100.00;101034.94;4983682;28;20104;-73
2023/04/11 04:51:10;;;;;;;0.32;0.30;;;;;;;7.73;100.00;101038.38;4982546;28;20516;-73
2023/04/11 04:57:03;;;;;;;0.65;0.20;;;;;;;7.80;100.00;101048.97;4987979;28;20100;-73
2023/04/11 04:59:32;;;;;;;0.25;0.20;;;;;;;7.83;100.00;101049.09;4982728;28;20556;-74
2023/04/11 05:02:00;;;;;;;0.35;0.20;;;;;;;7.83;100.00;101047.41;4984237;28;21122;-74
2023/04/11 05:04:29;;;;;;;0.10;0.10;;;;;;;7.84;100.00;101056.91;4991333;28;20500;-74
2023/04/11 05:06:59;;;;;;;0.20;0.20;;;;;;;7.84;100.00;101061.19;4988944;28;20608;-74
2023/04/11 05:09:34;;;;;;;0.38;0.20;;;;;;;7.86;100.00;101067.31;4981393;28;20050;-75
2023/04/11 05:12:03;;;;;;;0.52;0.40;;;;;;;7.87;100.00;101071.63;4986700;28;20050;-74
2023/04/11 05:14:31;;;;;;;1.58;0.90;;;;;;;7.85;100.00;101075.81;4982914;28;20117;-75
2023/04/11 05:17:00;;;;;;;0.65;0.40;;;;;;;7.82;100.00;101070.53;4988475;28;20117;-74
2023/04/11 05:19:28;;;;;;;0.85;0.50;;;;;;;7.79;100.00;101075.53;4982804;28;20049;-74
2023/04/11 05:21:58;;;;;;;0.60;0.50;;;;;;;7.80;100.00;101090.19;4984775;28;20042;-75
2023/04/11 05:24:27;;;;;;;0.50;0.40;;;;;;;7.79;100.00;101085.84;4985868;28;21342;-74
2023/04/11 05:26:56;;;;;;;0.30;0.30;;;;;;;7.79;100.00;101075.53;4988554;28;20042;-73
2023/04/11 05:29:24;;;;;;;0.70;0.47;;;;;;;7.74;100.00;101067.59;4986860;28;20101;-75
2023/04/11 05:31:53;;;;;;;0.47;0.40;;;;;;;7.75;100.00;101054.78;4984405;28;20050;-76
2023/04/11 05:34:21;;;;;;;0.30;0.30;;;;;;;7.75;100.00;101057.38;4983979;28;20073;-76
2023/04/11 05:36:50;;;;;;;0.60;0.40;;;;;;;7.76;100.00;101065.97;4985601;28;20095;-76
2023/04/11 05:39:21;;;;;;;1.00;0.55;;;;;;;7.66;100.00;101059.53;4985838;28;20591;-76
2023/04/11 05:41:49;;;;;;;0.50;0.30;;;;;;;7.73;100.00;101079.59;4984234;28;20524;-76
2023/04/11 05:44:18;;;;;;;0.63;0.40;;;;;;;7.72;100.00;101064.97;4982039;28;20125;-76
2023/04/11 05:46:49;;;;;;;0.35;0.30;;;;;;;7.71;100.00;101067.47;4977188;28;20050;-76
2023/04/11 05:49:18;;;;;;;0.73;0.47;;;;;;;7.70;100.00;101066.59;4988909;28;20061;-77
2023/04/11 05:51:46;;;;;;;0.60;0.38;;;;;;;7.71;100.00;101078.63;4990627;28;20054;-75
2023/04/11 05:54:31;;;;;;;1.00;0.40;;;;;;;7.71;100.00;101078.63;4994933;28;20070;-76
2023/04/11 05:57:02;;;;;;;0.52;0.40;;;;;;;7.70;100.00;101084.63;4989123;28;20129;-75
2023/04/11 05:59:31;;;;;;;0.40;0.32;;;;;;;7.70;100.00;101076.88;5002254;28;20050;-76
2023/04/11 06:02:00;;;;;;;0.40;0.13;;;;;;;7.69;100.00;101074.22;4993460;28;20054;-75
2023/04/11 06:04:33;;;;;;;0.35;0.32;;;;;;;7.67;100.00;101060.41;4988954;28;20047;-74
2023/04/11 06:07:03;;;;;;;0.15;0.15;;;;;;;7.60;100.00;101036.06;4997420;28;20070;-74
2023/04/11 06:09:31;;;;;;;1.05;0.50;;;;;;;7.68;100.00;101063.06;4994434;28;20336;-74
2023/04/11 06:12:02;;;;;;;0.20;0.20;;;;;;;7.68;100.00;101064.75;4991381;28;20065;-73
2023/04/11 06:14:31;;;;;;;0.82;0.40;;;;;;;7.66;100.00;101071.53;4995756;28;20054;-75
2023/04/11 06:17:00;;;;;;;0.40;0.30;;;;;;;7.65;100.00;101073.22;4995616;28;21273;-75
2023/04/11 06:19:28;;;;;;;0.80;0.50;;;;;;;7.63;100.00;101063.63;4992052;28;21255;-75
2023/04/11 06:21:57;;;;;;;0.57;0.40;;;;;;;7.63;100.00;101066.22;4987764;28;20054;-75
2023/04/11 06:24:36;;;;;;;1.67;0.30;;;;;;;7.64;100.00;101075.72;4996938;28;20109;-75
2023/04/11 06:27:08;;;;;;;3.03;1.05;;;;;;;7.64;100.00;101058.56;4990090;28;20058;-75
2023/04/11 06:29:37;;;;;;;1.25;0.77;;;;;;;7.65;100.00;101049.13;4995660;28;20497;-75
2023/04/11 06:32:06;;;;;;;3.90;0.82;;;;;;;7.65;100.00;101062.03;4990094;28;20045;-74
2023/04/11 06:34:34;;;;;;;1.80;0.50;;;;;;;7.58;100.00;101065.13;4984255;28;20046;-75
2023/04/11 06:37:03;;;;;;;1.58;0.80;;;;;;;7.54;100.00;101049.53;4993131;28;20085;-75
2023/04/11 06:39:32;;;;;;;0.63;0.30;;;;;;;7.53;100.00;101047.75;4994629;28;20108;-75
2023/04/11 06:42:00;;;;;;;2.13;0.47;;;;;;;7.55;100.00;101053.00;4989058;28;20480;-75
2023/04/11 06:44:31;;;;;;;0.70;0.57;;;;;;;7.54;100.00;101058.97;4993829;28;20062;-74
2023/04/11 06:46:59;;;;;;;1.65;0.40;;;;;;;7.54;100.00;101061.53;4988063;28;20124;-74
2023/04/11 06:49:28;;;;;;;1.13;0.70;;;;;;;7.52;100.00;101060.59;4990518;28;20046;-74
2023/04/11 06:51:58;;;;;;;0.75;0.52;;;;;;;7.46;100.00;101076.63;4996032;28;20050;-74
2023/04/11 06:54:26;;;;;;;0.93;0.60;;;;;;;7.39;100.00;101073.69;4995030;28;20065;-75
2023/04/11 06:56:56;;;;;;;1.23;0.50;;;;;;;7.29;100.00;101078.41;4989175;28;20050;-74
2023/04/11 06:59:24;;;;;;;0.45;0.30;;;;;;;7.26;100.00;101078.25;4993918;28;20164;-75
2023/04/11 07:01:54;;;;;;;1.42;0.60;;;;;;;7.25;100.00;101085.91;4990187;28;20061;-75
2023/04/11 07:04:23;;;;;;;0.68;0.30;;;;;;;7.24;100.00;101084.13;4980917;28;20093;-75
2023/04/11 07:06:51;;;;;;;0.57;0.32;;;;;;;7.26;100.00;101083.41;4990181;28;20101;-74
2023/04/11 07:09:20;;;;;;;1.13;0.35;;;;;;;7.25;100.00;101086.78;4992900;28;20077;-74
2023/04/11 07:11:48;;;;;;;0.68;0.30;;;;;;;7.27;100.00;101092.88;4989489;28;20054;-75
2023/04/11 07:14:17;;;;;;;0.63;0.30;;;;;;;7.28;100.00;101089.53;4984375;28;20105;-74
2023/04/11 07:16:45;;;;;;;0.55;0.30;;;;;;;7.26;100.00;101093.72;4991312;28;20121;-75
2023/04/11 07:19:16;;;;;;;0.82;0.40;;;;;;;7.25;100.00;101094.50;4990423;28;20054;-75
2023/04/11 07:21:44;;;;;;;0.45;0.45;;;;;;;7.22;100.00;101096.06;4987977;28;20051;-75
2023/04/11 07:24:13;;;;;;;0.20;0.17;;;;;;;7.21;100.00;101092.56;4987554;28;20700;-74
2023/04/11 07:26:42;;;;;;;0.65;0.20;;;;;;;7.21;100.00;101094.28;4991617;28;20103;-74
2023/04/11 07:29:10;;;;;;;0.63;0.40;;;;;;;7.21;100.00;101092.56;4991609;28;20081;-75
2023/04/11 07:31:39;;;;;;;0.43;0.25;;;;;;;7.24;100.00;101084.13;4986296;28;20061;-74
2023/04/11 07:34:08;;;;;;;0.20;0.20;;;;;;;7.20;100.00;101085.69;4985770;28;20050;-74
2023/04/11 07:36:38;;;;;;;0.20;0.20;;;;;;;7.19;100.00;101081.31;4991245;28;20054;-74
2023/04/11 07:39:08;;;;;;;0.73;0.17;;;;;;;7.18;100.00;101084.72;4988426;28;20046;-74
2023/04/11 07:41:37;;;;;;;0.20;0.20;;;;;;;7.12;100.00;101085.31;4990160;28;20054;-74
2023/04/11 07:44:08;;;;;;;0.60;0.20;;;;;;;7.03;100.00;101071.09;4987249;28;20069;-74
2023/04/11 07:46:37;;;;;;;0.25;0.17;;;;;;;7.07;100.00;101083.31;4989324;28;20578;-74
2023/04/11 07:49:05;;;;;;;0.22;0.20;;;;;;;7.06;100.00;101094.44;4989612;28;20124;-75
2023/04/11 07:51:34;;;;;;;0.10;0.10;;;;;;;7.09;100.00;101087.72;4992595;28;20054;-74
2023/04/11 07:54:04;;;;;;;0.73;0.43;;;;;;;7.09;100.00;101089.41;4990020;28;20128;-74
2023/04/11 07:56:40;;;;;;;0.20;0.10;;;;;;;7.07;100.00;101097.06;4986339;28;20046;-74
2023/04/11 07:59:08;;;;;;;0.10;0.03;;;;;;;7.05;100.00;101087.50;4986677;28;20500;-74
2023/04/11 08:01:37;;;;;;;1.98;0.50;;;;;;;7.03;100.00;101083.97;4983927;28;20050;-74
2023/04/11 08:04:05;;;;;;;0.57;0.30;;;;;;;6.99;100.00;101079.50;4988687;28;21260;-74
2023/04/11 08:06:34;;;;;;;0.00;0.00;;;;;;;6.91;100.00;101074.84;4986686;28;20401;-74
2023/04/11 08:09:04;;;;;;;1.00;0.20;;;;;;;6.90;100.00;101078.22;4983972;28;20046;-74
2023/04/11 08:11:33;;;;;;;0.38;0.20;;;;;;;6.88;100.00;101077.25;4989325;28;20061;-73
2023/04/11 08:14:02;;;;;;;0.13;0.10;;;;;;;6.83;100.00;101073.59;4981208;28;20101;-74
2023/04/11 08:16:30;;;;;;;0.20;0.20;;;;;;;6.88;100.00;101081.53;4992133;28;20566;-74
2023/04/11 08:18:59;;;;;;;0.17;0.13;;;;;;;6.88;100.00;101084.09;4994857;28;20042;-73
2023/04/11 08:21:27;;;;;;;0.10;0.10;;;;;;;6.89;100.00;101091.91;4981334;28;20047;-73
2023/04/11 08:23:56;;;;;;;0.77;0.20;;;;;;;6.89;100.00;101099.63;4988709;28;20050;-74
2023/04/11 08:26:26;;;;;;;0.22;0.20;;;;;;;6.93;100.00;101092.94;4985599;28;20058;-73
2023/04/11 08:28:55;;;;;;;0.20;0.10;;;;;;;6.96;100.00;101089.63;4989159;28;20053;-74
2023/04/11 08:31:23;;;;;;;0.52;0.20;;;;;;;7.00;100.00;101092.41;4979745;28;20042;-73
2023/04/11 08:33:52;;;;;;;0.47;0.10;;;;;;;6.98;100.00;101090.59;4975363;28;20053;-74
2023/04/11 08:36:20;;;;;;;0.20;0.20;;;;;;;6.95;100.00;101096.47;4985888;28;20046;-73
2023/04/11 08:38:49;;;;;;;0.55;0.28;;;;;;;6.97;100.00;101099.13;4986858;28;20532;-73
2023/04/11 08:41:17;;;;;;;0.40;0.17;;;;;;;6.97;100.00;101093.97;4984043;28;20046;-74
2023/04/11 08:43:48;;;;;;;3.47;0.30;;;;;;;6.97;100.00;101099.13;4984612;28;20054;-73
2023/04/11 08:46:17;;;;;;;0.05;0.03;;;;;;;6.93;100.00;101093.81;4992765;28;20539;-74
2023/04/11 08:48:45;;;;;;;0.13;0.13;;;;;;;6.89;100.00;101097.06;4983350;28;20084;-74
2023/04/11 08:51:14;;;;;;;0.43;0.20;;;;;;;6.88;100.00;101089.25;4983887;28;20051;-73
2023/04/11 08:53:43;;;;;;;2.05;0.22;;;;;;;6.88;100.00;101094.41;4983099;28;20058;-73
2023/04/11 08:56:17;;;;;;;0.28;0.20;;;;;;;6.85;100.00;101095.13;4984598;28;20054;-73
2023/04/11 08:58:47;;;;;;;0.30;0.25;;;;;;;6.85;100.00;101094.22;4982085;28;20129;-73
2023/04/11 09:01:30;;;;;;;1.63;0.30;;;;;;;6.86;100.00;101091.75;4982733;28;20053;-74
2023/04/11 09:04:00;;;;;;;0.20;0.17;;;;;;;6.84;100.00;101093.34;4987947;28;20518;-74
2023/04/11 09:06:30;;;;;;;0.47;0.20;;;;;;;6.86;100.00;101080.56;4982362;28;20441;-73
2023/04/11 09:08:59;;;;;;;1.55;0.52;;;;;;;6.87;100.00;101088.38;4970128;28;20078;-74
2023/04/11 09:11:28;;;;;;;0.30;0.30;;;;;;;6.89;100.00;101088.44;4983714;28;20504;-74
2023/04/11 09:14:11;;;;;;;0.45;0.30;;;;;;;6.88;100.00;101086.69;4984662;28;20393;-74
2023/04/11 09:16:55;;;;;;;0.17;0.17;;;;;;;6.86;100.00;101085.72;4981937;28;20734;-74
2023/04/11 09:19:27;;;;;;;0.20;0.17;;;;;;;6.86;100.00;101086.59;4988543;28;20069;-74
2023/04/11 09:21:59;;;;;;;0.50;0.10;;;;;;;6.86;100.00;101076.31;4978089;28;20048;-73
2023/04/11 09:24:28;;;;;;;0.50;0.38;;;;;;;6.85;100.00;101077.13;4984253;28;20044;-73
2023/04/11 09:27:12;;;;;;;1.15;0.28;;;;;;;6.78;100.00;101064.78;4988371;28;20061;-73
2023/04/11 09:29:44;;;;;;;0.10;0.10;;;;;;;6.79;100.00;101076.81;4986188;28;20054;-73
2023/04/11 09:32:28;;;;;;;0.70;0.30;;;;;;;6.77;100.00;101081.00;4982380;28;20172;-73
2023/04/11 09:35:17;;;;;;;0.47;0.20;;;;;;;6.68;100.00;101055.69;4986547;28;20046;-74
2023/04/11 09:37:51;;;;;;;1.08;0.68;;;;;;;6.77;100.00;101073.28;4978542;28;20673;-73
2023/04/11 09:40:21;;;;;;;5.47;0.63;;;;;;;6.77;100.00;101075.84;4986648;28;20050;-73
2023/04/11 09:42:56;;;;;;;4.43;0.30;;;;;;;6.76;100.00;101079.25;4986537;28;20038;-73
2023/04/11 09:45:28;;;;;;;0.43;0.43;;;;;;;6.72;100.00;101072.19;4985320;28;20050;-73
2023/04/11 09:47:57;;;;;;;0.50;0.22;;;;;;;6.68;100.00;101080.53;4984603;28;20050;-73
2023/04/11 09:50:35;;;;;;;0.28;0.20;;;;;;;6.66;100.00;101077.00;4983112;28;20543;-73
2023/04/11 09:53:18;;;;;;;0.43;0.20;;;;;;;6.68;100.00;101081.41;4989147;28;20054;-73
2023/04/11 09:55:47;;;;;;;0.30;0.20;;;;;;;6.69;100.00;101085.75;4976924;28;20785;-73
2023/04/11 09:58:16;;;;;;;1.58;0.40;;;;;;;6.67;100.00;101078.78;4985546;28;20070;-73
2023/04/11 10:00:50;;;;;;;0.43;0.22;;;;;;;6.64;100.00;101083.75;4986609;28;20043;-73
2023/04/11 10:03:20;;;;;;;0.30;0.22;;;;;;;6.63;100.00;101082.88;4980690;28;20064;-73
2023/04/11 10:05:48;;;;;;;0.90;0.25;;;;;;;6.61;100.00;101079.34;4982774;28;20054;-73
2023/04/11 10:08:23;;;;;;;0.50;0.40;;;;;;;6.57;100.00;101073.97;4988066;28;20105;-72
2023/04/11 10:10:53;;;;;;;0.43;0.38;;;;;;;6.48;100.00;101066.66;4983255;28;20082;-73
2023/04/11 10:13:41;;;;;;;0.30;0.20;;;;;;;6.49;100.00;101074.47;4988610;28;20421;-73
2023/04/11 10:16:13;;;;;;;0.15;0.15;;;;;;;6.53;100.00;101077.19;4980595;28;20062;-74
2023/04/11 10:19:22;;;;;;;0.47;0.22;;;;;;;6.52;100.00;101066.03;4982115;28;20058;-73
2023/04/11 10:21:51;;;;;;;1.58;0.50;;;;;;;6.54;100.00;101071.25;4982527;28;20050;-73
2023/04/11 10:24:20;;;;;;;0.30;0.20;;;;;;;6.54;100.00;101071.25;4987897;28;20341;-73
2023/04/11 10:26:51;;;;;;;2.58;0.32;;;;;;;6.55;100.00;101067.84;4986428;28;20488;-73
2023/04/11 10:29:51;;;;;;;0.47;0.30;;;;;;;6.40;100.00;101058.56;4985414;28;20077;-73
2023/04/11 10:32:23;;;;;;;0.28;0.28;;;;;;;6.48;100.00;101066.66;4980812;28;20053;-73
2023/04/11 10:35:31;;;;;;;0.35;0.22;;;;;;;6.47;100.00;101070.94;4973881;28;20529;-73
2023/04/11 10:37:59;;;;;;;1.80;0.35;;;;;;;6.47;100.00;101070.94;4976553;28;20050;-73
2023/04/11 10:40:28;;;;;;;0.68;0.30;;;;;;;6.48;100.00;101065.00;4983988;28;20116;-73
2023/04/11 10:42:57;;;;;;;0.17;0.17;;;;;;;6.56;100.00;101072.22;4989711;28;20042;-74
2023/04/11 10:45:26;;;;;;;0.10;0.10;;;;;;;6.61;100.00;101073.31;4981804;28;20108;-74
2023/04/11 10:48:20;;;;;;;0.25;0.15;;;;;;;6.60;100.00;101072.44;4987636;28;20106;-74
2023/04/11 10:50:49;;;;;;;0.13;0.13;;;;;;;6.60;100.00;101076.72;4978753;28;20059;-73
2023/04/11 10:53:37;;;;;;;0.88;0.32;;;;;;;6.52;100.00;101062.56;4985119;28;20567;-73
2023/04/11 10:56:06;;;;;;;0.30;0.30;;;;;;;6.56;100.00;101067.06;4991265;28;20054;-73
2023/04/11 10:58:39;;;;;;;1.25;0.47;;;;;;;6.48;100.00;101057.28;4981609;28;20047;-73
2023/04/11 11:01:18;;;;;;;0.60;0.40;;;;;;;6.48;100.00;101069.22;4989630;28;20069;-73
2023/04/11 11:03:58;;;;;;;0.47;0.30;;;;;;;6.34;100.00;101054.81;4992563;28;20061;-73
2023/04/11 11:06:28;;;;;;;0.40;0.20;;;;;;;6.34;100.00;101063.38;4988880;28;20062;-74
2023/04/11 11:08:58;;;;;;;1.27;0.35;;;;;;;6.31;100.00;101064.94;4984253;28;20050;-73
2023/04/11 11:11:26;;;;;;;3.78;0.45;;;;;;;6.27;100.00;101063.88;4984481;28;20086;-73
2023/04/11 11:13:56;;;;;;;0.10;0.10;;;;;;;6.23;100.00;101067.09;4984653;28;20054;-74
2023/04/11 11:16:27;;;;;;;0.15;0.15;;;;;;;6.22;100.00;101068.78;4986360;28;20696;-73
2023/04/11 11:19:00;;;;;;;0.75;0.32;;;;;;;6.23;100.00;101072.22;4988085;28;20657;-71
2023/04/11 11:21:33;;;;;;;0.35;0.25;;;;;;;6.19;100.00;101062.63;4989970;28;20100;-72
2023/04/11 11:24:02;;;;;;;;;;;;;;;6.11;100.00;101059.63;4993352;28;20484;-72
2023/04/11 11:26:40;;;;;;;0.68;0.25;;;;;;;6.06;100.00;101072.22;4981991;28;19930;-72
2023/04/11 11:29:09;;;;;;;0.10;0.10;;;;;;;6.06;100.00;101064.53;4989223;28;20046;-72
2023/04/11 11:31:40;;;;;;;0.52;0.20;;;;;;;6.07;100.00;101060.28;4987476;28;20132;-71
2023/04/11 11:34:10;;;;;;;0.40;0.30;;;;;;;6.08;100.00;101056.91;4986199;28;20052;-71
2023/04/11 11:36:41;;;;;;;0.82;0.47;;;;;;;6.12;100.00;101063.09;4985439;28;20073;-71
2023/04/11 11:39:11;;;;;;;0.30;0.20;;;;;;;6.10;100.00;101073.28;4990213;28;20126;-72
2023/04/11 11:41:41;;;;;;;0.30;0.30;;;;;;;6.08;100.00;101069.75;4990348;28;20433;-71
2023/04/11 11:44:23;;;;;;;0.20;0.13;;;;;;;6.08;100.00;101065.50;4984369;28;20116;-72